createdAt,value
2022-12-25T00:02:01.814Z,0.53
2022-12-25T00:04:29.636Z,1.33
2022-12-25T00:06:59.449Z,0.50
2022-12-25T00:09:27.363Z,1.73
2022-12-25T00:11:55.046Z,0.83
2022-12-25T00:14:22.762Z,0.87
2022-12-25T00:16:50.631Z,0.40
2022-12-25T00:19:18.376Z,0.70
2022-12-25T00:21:46.096Z,0.40
2022-12-25T00:24:15.124Z,0.50
2022-12-25T00:26:42.837Z,0.50
2022-12-25T00:29:13.460Z,0.50
2022-12-25T00:31:41.208Z,0.50
2022-12-25T00:34:08.962Z,1.07
2022-12-25T00:36:41.687Z,1.50
2022-12-25T00:39:10.146Z,1.00
2022-12-25T00:41:57.073Z,0.87
2022-12-25T00:44:24.786Z,0.53
2022-12-25T00:46:52.654Z,0.70
2022-12-25T00:49:22.319Z,1.30
2022-12-25T00:51:50.259Z,0.40
2022-12-25T00:54:18.305Z,0.40
2022-12-25T00:56:47.581Z,0.50
2022-12-25T00:59:15.735Z,0.50
2022-12-25T01:01:43.809Z,0.80
2022-12-25T01:04:12.315Z,0.50
2022-12-25T01:06:40.323Z,0.50
2022-12-25T01:09:26.024Z,0.57
2022-12-25T01:11:55.113Z,0.50
2022-12-25T01:14:22.833Z,0.80
2022-12-25T01:16:50.569Z,0.70
2022-12-25T01:19:18.305Z,0.40
2022-12-25T01:21:45.993Z,0.40
2022-12-25T01:24:13.703Z,0.40
2022-12-25T01:26:41.402Z,0.53
2022-12-25T01:29:10.472Z,0.90
2022-12-25T01:31:38.400Z,0.90
2022-12-25T01:34:06.490Z,0.60
2022-12-25T01:36:34.203Z,1.40
2022-12-25T01:39:02.015Z,0.50
2022-12-25T01:41:29.748Z,0.60
2022-12-25T01:44:00.751Z,1.20
2022-12-25T01:46:30.399Z,2.00
2022-12-25T01:49:01.614Z,1.10
2022-12-25T01:51:34.855Z,1.00
2022-12-25T01:54:06.483Z,0.50
2022-12-25T01:56:35.411Z,0.40
2022-12-25T01:59:05.067Z,1.17
2022-12-25T02:01:34.645Z,0.70
2022-12-25T02:04:13.920Z,0.50
2022-12-25T02:06:42.632Z,0.87
2022-12-25T02:09:10.532Z,0.67
2022-12-25T02:11:55.665Z,0.57
2022-12-25T02:14:23.582Z,0.60
2022-12-25T02:16:59.004Z,0.40
2022-12-25T02:19:40.524Z,0.47
2022-12-25T02:22:17.708Z,1.53
2022-12-25T02:25:01.598Z,0.50
2022-12-25T02:28:01.320Z,0.60
2022-12-25T02:30:37.143Z,0.90
2022-12-25T02:33:27.412Z,0.83
2022-12-25T02:35:57.731Z,0.60
2022-12-25T02:38:32.527Z,0.77
2022-12-25T02:41:05.045Z,1.20
2022-12-25T02:43:54.392Z,0.70
2022-12-25T02:46:42.808Z,0.63
2022-12-25T02:49:31.895Z,0.60
2022-12-25T02:52:23.763Z,0.90
2022-12-25T02:55:14.970Z,0.50
2022-12-25T02:58:03.302Z,0.50
2022-12-25T03:00:50.301Z,0.80
2022-12-25T03:03:38.298Z,0.70
2022-12-25T03:06:25.973Z,1.53
2022-12-25T03:09:18.116Z,0.60
2022-12-25T03:11:47.364Z,0.60
2022-12-25T03:14:32.588Z,0.87
2022-12-25T03:17:01.064Z,1.00
2022-12-25T03:19:52.083Z,0.40
2022-12-25T03:22:42.304Z,1.00
2022-12-25T03:25:28.046Z,0.60
2022-12-25T03:27:57.612Z,0.47
2022-12-25T03:30:48.719Z,0.40
2022-12-25T03:33:44.640Z,0.60
2022-12-25T03:36:18.572Z,0.60
2022-12-25T03:39:22.640Z,0.70
2022-12-25T03:42:11.231Z,0.77
2022-12-25T03:44:59.140Z,0.50
2022-12-25T03:47:52.927Z,0.40
2022-12-25T03:50:43.841Z,0.47
2022-12-25T03:53:37.466Z,0.47
2022-12-25T03:56:23.701Z,0.60
2022-12-25T03:59:10.251Z,1.10
2022-12-25T04:01:55.635Z,1.00
2022-12-25T04:04:41.081Z,1.90
2022-12-25T04:07:26.627Z,0.80
2022-12-25T04:10:13.357Z,0.47
2022-12-25T04:12:58.657Z,0.40
2022-12-25T04:15:46.517Z,0.60
2022-12-25T04:18:32.104Z,0.50
2022-12-25T04:21:17.511Z,0.40
2022-12-25T04:24:02.900Z,2.00
2022-12-25T04:26:49.640Z,2.00
2022-12-25T04:29:35.179Z,0.50
2022-12-25T04:32:20.591Z,0.60
2022-12-25T04:35:06.131Z,0.40
2022-12-25T04:37:33.826Z,0.40
2022-12-25T04:40:01.553Z,0.80
2022-12-25T04:42:30.581Z,1.17
2022-12-25T04:44:58.399Z,1.10
2022-12-25T04:47:26.173Z,0.60
2022-12-25T04:49:53.909Z,0.53
2022-12-25T04:52:21.648Z,0.50
2022-12-25T04:54:49.332Z,0.70
2022-12-25T04:57:17.049Z,0.60
2022-12-25T04:59:46.101Z,0.90
2022-12-25T05:02:13.953Z,0.50
2022-12-25T05:04:41.738Z,0.93
2022-12-25T05:07:09.794Z,0.40
2022-12-25T05:09:41.540Z,0.80
2022-12-25T05:12:09.352Z,0.50
2022-12-25T05:14:37.088Z,0.50
2022-12-25T05:17:07.767Z,1.23
2022-12-25T05:19:35.596Z,0.70
2022-12-25T05:22:03.330Z,0.50
2022-12-25T05:24:31.123Z,0.60
2022-12-25T05:26:58.827Z,0.83
2022-12-25T05:29:26.685Z,0.63
2022-12-25T05:31:54.382Z,1.07
2022-12-25T05:34:23.599Z,0.50
2022-12-25T05:36:51.379Z,0.40
2022-12-25T05:39:19.291Z,1.40
2022-12-25T05:41:46.985Z,0.60
2022-12-25T05:44:14.840Z,0.60
2022-12-25T05:46:42.599Z,0.77
2022-12-25T05:49:10.571Z,0.40
2022-12-25T05:51:39.772Z,0.60
2022-12-25T05:54:07.523Z,1.23
2022-12-25T05:56:35.452Z,0.80
2022-12-25T05:59:03.152Z,0.47
2022-12-25T06:01:30.922Z,0.40
2022-12-25T06:03:58.742Z,0.50
2022-12-25T06:06:26.838Z,0.40
2022-12-25T06:08:56.512Z,0.50
2022-12-25T06:11:24.375Z,0.97
2022-12-25T06:13:53.222Z,1.33
2022-12-25T06:16:21.431Z,0.60
2022-12-25T06:18:52.247Z,0.40
2022-12-25T06:21:19.990Z,0.50
2022-12-25T06:23:47.854Z,0.80
2022-12-25T06:26:18.745Z,0.50
2022-12-25T06:28:46.825Z,0.80
2022-12-25T06:31:16.711Z,1.27
2022-12-25T06:33:44.619Z,0.80
2022-12-25T06:36:16.921Z,0.60
2022-12-25T06:38:45.013Z,0.80
2022-12-25T06:41:16.222Z,0.40
2022-12-25T06:43:48.985Z,0.60
2022-12-25T06:46:16.934Z,0.60
2022-12-25T06:48:49.072Z,0.50
2022-12-25T06:51:17.565Z,0.63
2022-12-25T06:53:45.307Z,0.50
2022-12-25T06:56:18.747Z,0.57
2022-12-25T06:58:50.192Z,0.90
2022-12-25T07:01:21.540Z,1.13
2022-12-25T07:03:51.467Z,1.00
2022-12-25T07:06:19.171Z,0.70
2022-12-25T07:08:46.907Z,0.60
2022-12-25T07:11:14.598Z,0.67
2022-12-25T07:13:42.364Z,0.47
2022-12-25T07:16:12.960Z,1.13
2022-12-25T07:18:41.387Z,0.50
2022-12-25T07:21:10.675Z,1.10
2022-12-25T07:23:38.519Z,0.50
2022-12-25T07:26:06.699Z,2.53
2022-12-25T07:28:34.865Z,0.77
2022-12-25T07:31:03.743Z,1.07
2022-12-25T07:33:33.796Z,1.27
2022-12-25T07:36:01.781Z,0.70
2022-12-25T07:38:29.551Z,2.50
2022-12-25T07:40:57.530Z,2.10
2022-12-25T07:43:25.321Z,3.37
2022-12-25T07:45:56.077Z,1.20
2022-12-25T07:48:24.123Z,4.30
2022-12-25T07:50:58.358Z,2.30
2022-12-25T07:53:26.197Z,1.90
2022-12-25T07:56:01.275Z,1.20
2022-12-25T07:58:29.098Z,1.77
2022-12-25T08:00:56.977Z,1.60
2022-12-25T08:03:24.931Z,2.03
2022-12-25T08:05:52.746Z,0.90
2022-12-25T08:08:21.776Z,2.70
2022-12-25T08:10:49.553Z,2.00
2022-12-25T08:13:17.254Z,13.27
2022-12-25T08:15:44.956Z,3.50
2022-12-25T08:18:12.725Z,3.10
2022-12-25T08:20:40.501Z,3.17
2022-12-25T08:23:08.340Z,1.80
2022-12-25T08:25:37.445Z,1.23
2022-12-25T08:28:05.468Z,3.80
2022-12-25T08:30:33.189Z,2.37
2022-12-25T08:33:00.992Z,3.50
2022-12-25T08:35:28.780Z,2.03
2022-12-25T08:37:56.479Z,0.80
2022-12-25T08:40:24.198Z,2.63
2022-12-25T08:42:53.239Z,2.27
2022-12-25T08:45:20.968Z,2.77
2022-12-25T08:47:48.647Z,2.00
2022-12-25T08:50:16.432Z,1.80
2022-12-25T08:52:44.306Z,4.40
2022-12-25T08:55:12.218Z,11.80
2022-12-25T08:57:39.925Z,5.87
2022-12-25T09:00:10.551Z,5.20
2022-12-25T09:02:38.421Z,9.03
2022-12-25T09:05:07.412Z,7.33
2022-12-25T09:07:35.115Z,7.20
2022-12-25T09:10:03.344Z,7.03
2022-12-25T09:12:31.081Z,4.87
2022-12-25T09:14:58.801Z,3.40
2022-12-25T09:17:27.847Z,5.70
2022-12-25T09:19:55.570Z,4.40
2022-12-25T09:22:23.343Z,3.80
2022-12-25T09:24:51.042Z,6.30
2022-12-25T09:27:18.748Z,3.90
2022-12-25T09:29:46.469Z,5.37
2022-12-25T09:32:14.287Z,6.73
2022-12-25T09:34:43.293Z,4.83
2022-12-25T09:37:11.057Z,5.50
2022-12-25T09:39:43.968Z,4.90
2022-12-25T09:42:18.283Z,4.70
2022-12-25T09:44:50.028Z,4.07
2022-12-25T09:47:21.284Z,5.30
2022-12-25T09:49:55.041Z,4.90
2022-12-25T09:52:26.145Z,6.03
2022-12-25T09:55:00.873Z,3.90
2022-12-25T09:57:28.566Z,11.10
2022-12-25T09:59:57.455Z,7.43
2022-12-25T10:02:43.230Z,5.57
2022-12-25T10:05:26.327Z,5.43
2022-12-25T10:08:02.014Z,3.70
2022-12-25T10:10:45.364Z,4.20
2022-12-25T10:13:33.810Z,4.03
2022-12-25T10:16:15.863Z,2.90
2022-12-25T10:19:02.696Z,3.73
2022-12-25T10:21:32.459Z,3.87
2022-12-25T10:24:07.451Z,3.77
2022-12-25T10:26:35.992Z,5.60
2022-12-25T10:29:13.444Z,6.63
2022-12-25T10:31:42.635Z,2.90
2022-12-25T10:34:12.856Z,4.43
2022-12-25T10:36:42.899Z,4.13
2022-12-25T10:39:16.729Z,3.00
2022-12-25T10:42:00.749Z,4.43
2022-12-25T10:44:28.446Z,4.17
2022-12-25T10:46:58.203Z,5.33
2022-12-25T10:49:30.368Z,2.80
2022-12-25T10:51:59.503Z,4.10
2022-12-25T10:54:29.383Z,5.93
2022-12-25T10:56:59.285Z,2.67
2022-12-25T10:59:28.497Z,3.97
2022-12-25T11:01:57.106Z,3.70
2022-12-25T11:04:28.635Z,4.43
2022-12-25T11:07:02.268Z,2.40
2022-12-25T11:09:30.078Z,2.53
2022-12-25T11:11:57.904Z,1.87
2022-12-25T11:14:27.921Z,2.03
2022-12-25T11:16:55.991Z,2.67
2022-12-25T11:19:29.619Z,4.23
2022-12-25T11:21:58.888Z,5.10
2022-12-25T11:24:30.249Z,4.10
2022-12-25T11:26:59.848Z,2.37
2022-12-25T11:29:36.249Z,2.33
2022-12-25T11:32:07.187Z,6.37
2022-12-25T11:34:41.883Z,2.87
2022-12-25T11:37:16.911Z,2.63
2022-12-25T11:39:45.981Z,2.63
2022-12-25T11:42:20.515Z,2.80
2022-12-25T11:44:54.001Z,3.20
2022-12-25T11:47:25.281Z,2.63
2022-12-25T11:50:00.755Z,1.87
2022-12-25T11:52:34.789Z,3.60
2022-12-25T11:55:14.944Z,2.47
2022-12-25T11:57:45.604Z,2.37
2022-12-25T12:00:17.114Z,2.50
2022-12-25T12:02:49.830Z,2.93
2022-12-25T12:05:22.033Z,2.50
2022-12-25T12:07:54.817Z,3.50
2022-12-25T12:10:30.122Z,2.77
2022-12-25T12:13:04.688Z,1.53
2022-12-25T12:15:42.135Z,2.60
2022-12-25T12:18:10.747Z,1.27
2022-12-25T12:20:38.651Z,4.90
2022-12-25T12:23:16.118Z,3.60
2022-12-25T12:25:46.209Z,5.80
2022-12-25T12:28:22.326Z,3.03
2022-12-25T12:30:59.168Z,3.43
2022-12-25T12:33:31.380Z,2.40
2022-12-25T12:36:00.313Z,4.10
2022-12-25T12:38:28.839Z,3.13
2022-12-25T12:41:00.851Z,3.70
2022-12-25T12:43:33.446Z,2.60
2022-12-25T12:46:06.518Z,3.70
2022-12-25T12:48:41.311Z,3.07
2022-12-25T12:51:11.075Z,1.83
2022-12-25T12:53:40.704Z,3.33
2022-12-25T12:56:18.149Z,1.90
2022-12-25T12:58:50.519Z,2.93
2022-12-25T13:01:46.207Z,1.20
2022-12-25T13:04:31.829Z,2.20
2022-12-25T13:07:11.045Z,1.80
2022-12-25T13:09:51.057Z,2.27
2022-12-25T13:12:22.255Z,2.77
2022-12-25T13:14:51.546Z,1.73
2022-12-25T13:17:23.246Z,1.10
2022-12-25T13:19:54.840Z,1.40
2022-12-25T13:22:25.331Z,1.53
2022-12-25T13:24:57.900Z,1.23
2022-12-25T13:27:30.027Z,1.23
2022-12-25T13:29:58.497Z,2.00
2022-12-25T13:32:28.993Z,0.90
2022-12-25T13:34:57.206Z,2.40
2022-12-25T13:37:28.144Z,1.33
2022-12-25T13:39:57.393Z,1.10
2022-12-25T13:42:29.182Z,2.87
2022-12-25T13:44:59.368Z,1.83
2022-12-25T13:47:32.170Z,0.60
2022-12-25T13:50:01.669Z,3.43
2022-12-25T13:52:34.589Z,1.23
2022-12-25T13:55:03.986Z,1.27
2022-12-25T13:57:36.321Z,1.37
2022-12-25T14:00:05.067Z,1.00
2022-12-25T14:02:37.795Z,2.20
2022-12-25T14:05:22.592Z,1.13
2022-12-25T14:07:52.234Z,1.47
2022-12-25T14:10:21.293Z,1.67
2022-12-25T14:12:51.291Z,1.60
2022-12-25T14:15:21.376Z,0.70
2022-12-25T14:17:50.025Z,2.00
2022-12-25T14:20:26.648Z,0.90
2022-12-25T14:22:56.250Z,1.00
2022-12-25T14:25:29.368Z,2.20
2022-12-25T14:27:58.667Z,0.93
2022-12-25T14:30:29.773Z,1.10
2022-12-25T14:32:58.555Z,0.93
2022-12-25T14:35:26.720Z,2.90
2022-12-25T14:38:00.088Z,1.37
2022-12-25T14:40:31.254Z,1.23
2022-12-25T14:43:02.291Z,0.80
2022-12-25T14:45:32.292Z,1.50
2022-12-25T14:48:02.898Z,2.80
2022-12-25T14:50:34.298Z,1.27
2022-12-25T14:53:02.183Z,1.30
2022-12-25T14:55:31.271Z,0.70
2022-12-25T14:58:04.445Z,1.00
2022-12-25T15:00:35.673Z,1.67
2022-12-25T15:03:06.509Z,1.10
2022-12-25T15:05:36.443Z,0.70
2022-12-25T15:08:23.855Z,0.60
2022-12-25T15:11:01.658Z,1.40
2022-12-25T15:13:34.031Z,2.83
2022-12-25T15:16:07.202Z,1.13
2022-12-25T15:18:37.972Z,1.37
2022-12-25T15:21:06.144Z,1.10
2022-12-25T15:23:33.904Z,1.23
2022-12-25T15:26:01.617Z,0.73
2022-12-25T15:28:30.679Z,1.07
2022-12-25T15:30:59.434Z,1.40
2022-12-25T15:33:27.148Z,1.40
2022-12-25T15:35:55.090Z,2.70
2022-12-25T15:38:22.821Z,2.10
2022-12-25T15:40:50.595Z,6.30
2022-12-25T15:43:40.075Z,6.03
2022-12-25T15:46:09.908Z,5.87
2022-12-25T15:48:37.656Z,13.60
2022-12-25T15:51:05.551Z,15.33
2022-12-25T15:53:33.260Z,10.20
2022-12-25T15:56:00.983Z,8.70
2022-12-25T15:58:28.720Z,7.27
2022-12-25T16:00:56.426Z,7.93
2022-12-25T16:03:25.508Z,9.13
2022-12-25T16:05:54.532Z,10.33
2022-12-25T16:08:22.536Z,4.73
2022-12-25T16:10:50.445Z,7.93
2022-12-25T16:13:18.156Z,8.87
2022-12-25T16:15:45.988Z,7.87
2022-12-25T16:18:13.796Z,7.87
2022-12-25T16:20:43.316Z,5.83
2022-12-25T16:23:11.052Z,4.00
2022-12-25T16:25:38.788Z,9.47
2022-12-25T16:28:09.514Z,6.00
2022-12-25T16:30:38.235Z,6.63
2022-12-25T16:33:06.699Z,4.53
2022-12-25T16:35:34.708Z,6.80
2022-12-25T16:38:03.965Z,4.80
2022-12-25T16:40:32.570Z,5.13
2022-12-25T16:43:00.726Z,5.40
2022-12-25T16:45:28.616Z,4.13
2022-12-25T16:47:57.838Z,5.20
2022-12-25T16:50:25.595Z,4.50
2022-12-25T16:52:53.261Z,3.47
2022-12-25T16:55:27.724Z,5.23
2022-12-25T16:57:57.632Z,4.57
2022-12-25T17:00:25.526Z,6.87
2022-12-25T17:02:53.542Z,5.67
2022-12-25T17:05:21.424Z,6.83
2022-12-25T17:07:49.448Z,5.20
2022-12-25T17:10:17.357Z,6.43
2022-12-25T17:12:46.412Z,3.47
2022-12-25T17:15:14.172Z,8.67
2022-12-25T17:17:41.913Z,2.87
2022-12-25T17:20:10.326Z,3.70
2022-12-25T17:22:38.037Z,6.87
2022-12-25T17:25:06.448Z,4.80
2022-12-25T17:27:34.179Z,5.07
2022-12-25T17:30:03.247Z,6.10
2022-12-25T17:32:31.030Z,4.40
2022-12-25T17:34:58.734Z,6.40
2022-12-25T17:37:26.492Z,5.20
2022-12-25T17:39:54.182Z,2.30
2022-12-25T17:42:21.883Z,2.47
2022-12-25T17:44:49.613Z,2.10
2022-12-25T17:47:18.667Z,4.90
2022-12-25T17:49:46.367Z,5.20
2022-12-25T17:52:14.096Z,2.17
2022-12-25T17:54:41.796Z,6.20
2022-12-25T17:57:09.472Z,2.83
2022-12-25T17:59:37.185Z,2.03
2022-12-25T18:02:05.044Z,5.20
2022-12-25T18:04:34.123Z,3.50
2022-12-25T18:07:03.229Z,5.90
2022-12-25T18:09:30.974Z,3.97
2022-12-25T18:11:58.686Z,5.27
2022-12-25T18:14:26.440Z,4.03
2022-12-25T18:16:54.277Z,3.97
2022-12-25T18:19:22.049Z,6.60
2022-12-25T18:21:51.239Z,2.17
2022-12-25T18:24:18.938Z,4.13
2022-12-25T18:26:46.684Z,5.63
2022-12-25T18:29:14.380Z,7.50
2022-12-25T18:31:43.360Z,6.10
2022-12-25T18:34:11.105Z,3.57
2022-12-25T18:36:38.845Z,8.43
2022-12-25T18:39:07.897Z,5.30
2022-12-25T18:41:55.969Z,8.57
2022-12-25T18:44:23.658Z,10.30
2022-12-25T18:46:51.423Z,8.33
2022-12-25T18:49:19.189Z,7.13
2022-12-25T18:51:46.910Z,8.97
2022-12-25T18:54:15.949Z,6.17
2022-12-25T18:56:43.702Z,5.53
2022-12-25T18:59:11.404Z,7.27
2022-12-25T19:01:39.341Z,4.87
2022-12-25T19:04:10.550Z,4.60
2022-12-25T19:06:38.253Z,6.67
2022-12-25T19:09:09.148Z,8.43
2022-12-25T19:11:46.153Z,4.63
2022-12-25T19:14:14.849Z,8.10
2022-12-25T19:16:42.631Z,5.57
2022-12-25T19:19:10.448Z,8.27
2022-12-25T19:21:38.204Z,6.07
2022-12-25T19:24:06.545Z,7.60
2022-12-25T19:26:35.731Z,7.53
2022-12-25T19:29:04.831Z,6.70
2022-12-25T19:31:32.719Z,4.80
2022-12-25T19:34:00.453Z,6.73
2022-12-25T19:36:28.151Z,5.83
2022-12-25T19:38:55.862Z,3.83
2022-12-25T19:41:23.647Z,7.27
2022-12-25T19:43:52.306Z,5.10
2022-12-25T19:46:24.589Z,6.17
2022-12-25T19:48:52.828Z,4.10
2022-12-25T19:51:23.921Z,2.83
2022-12-25T19:53:51.720Z,5.30
2022-12-25T19:56:19.596Z,4.27
2022-12-25T19:58:47.327Z,5.40
2022-12-25T20:01:16.581Z,3.20
2022-12-25T20:03:46.749Z,3.23
2022-12-25T20:06:19.591Z,3.73
2022-12-25T20:08:48.107Z,2.00
2022-12-25T20:11:15.948Z,4.20
2022-12-25T20:13:43.935Z,5.30
2022-12-25T20:16:12.419Z,3.57
2022-12-25T20:18:40.841Z,2.93
2022-12-25T20:21:13.947Z,5.37
2022-12-25T20:23:42.211Z,4.50
2022-12-25T20:26:10.820Z,2.83
2022-12-25T20:28:40.093Z,2.83
2022-12-25T20:31:08.497Z,2.23
2022-12-25T20:33:37.519Z,2.90
2022-12-25T20:36:07.111Z,2.90
2022-12-25T20:38:36.870Z,1.30
2022-12-25T20:43:54.478Z,1.50
2022-12-25T20:46:23.478Z,1.60
2022-12-25T20:48:51.767Z,2.43
2022-12-25T20:51:21.717Z,2.63
2022-12-25T20:53:51.822Z,4.73
2022-12-25T20:56:22.234Z,1.80
2022-12-25T20:58:53.936Z,2.47
2022-12-25T21:01:22.458Z,2.10
2022-12-25T21:03:50.747Z,1.67
2022-12-25T21:06:18.874Z,1.43
2022-12-25T21:08:48.419Z,3.40
2022-12-25T21:11:17.977Z,3.00
2022-12-25T21:13:46.641Z,2.40
2022-12-25T21:16:18.242Z,2.57
2022-12-25T21:18:46.237Z,1.80
2022-12-25T21:21:13.994Z,1.70
2022-12-25T21:23:41.891Z,2.47
2022-12-25T21:26:11.403Z,2.10
2022-12-25T21:28:40.474Z,4.13
2022-12-25T21:31:09.208Z,3.80
2022-12-25T21:33:51.271Z,1.80
2022-12-25T21:36:22.276Z,2.40
2022-12-25T21:38:54.072Z,1.00
2022-12-25T21:41:22.477Z,1.53
2022-12-25T21:43:52.115Z,3.90
2022-12-25T21:46:20.286Z,2.20
2022-12-25T21:48:48.429Z,1.83
2022-12-25T21:51:35.894Z,2.00
2022-12-25T21:54:04.346Z,3.07
2022-12-25T21:56:36.009Z,1.70
2022-12-25T21:59:09.752Z,1.77
2022-12-25T22:01:38.474Z,2.30
2022-12-25T22:04:08.493Z,1.60
2022-12-25T22:06:54.729Z,1.47
2022-12-25T22:09:23.053Z,1.77
2022-12-25T22:12:08.551Z,2.20
2022-12-25T22:14:55.403Z,5.43
2022-12-25T22:17:43.647Z,1.33
2022-12-25T22:20:14.045Z,1.10
2022-12-25T22:22:41.875Z,1.83
2022-12-25T22:25:10.743Z,1.93
2022-12-25T22:27:39.752Z,3.17
2022-12-25T22:30:11.584Z,1.57
2022-12-25T22:32:39.534Z,2.37
2022-12-25T22:35:08.064Z,2.40
2022-12-25T22:37:36.651Z,2.97
2022-12-25T22:40:05.846Z,1.50
2022-12-25T22:42:33.807Z,1.40
2022-12-25T22:45:01.537Z,1.23
2022-12-25T22:47:30.659Z,1.77
2022-12-25T22:49:58.434Z,2.13
2022-12-25T22:52:26.229Z,1.70
2022-12-25T22:54:54.023Z,1.27
2022-12-25T22:57:21.739Z,1.40
2022-12-25T22:59:49.494Z,1.70
2022-12-25T23:02:17.407Z,3.90
2022-12-25T23:04:46.622Z,0.93
2022-12-25T23:07:15.490Z,2.50
2022-12-25T23:09:43.772Z,3.97
2022-12-25T23:12:32.256Z,1.50
2022-12-25T23:14:59.507Z,2.07
2022-12-25T23:17:41.212Z,1.30
2022-12-25T23:20:32.454Z,1.67
2022-12-25T23:23:17.907Z,1.80
2022-12-25T23:26:03.384Z,2.53
2022-12-25T23:28:45.088Z,1.03
2022-12-25T23:31:13.001Z,1.37
2022-12-25T23:33:40.739Z,2.10
2022-12-25T23:36:10.295Z,1.70
2022-12-25T23:38:38.035Z,2.27
2022-12-25T23:41:05.806Z,1.00
2022-12-25T23:43:33.492Z,1.20
2022-12-25T23:46:01.331Z,2.60
2022-12-25T23:48:29.110Z,2.00
2022-12-25T23:50:56.961Z,1.87
2022-12-25T23:53:26.009Z,2.03
2022-12-25T23:55:55.951Z,2.90
2022-12-25T23:58:24.057Z,1.67
